createdAt,value
2022-08-01T00:00:29.565Z,2.30
2022-08-01T00:03:14.728Z,2.15
2022-08-01T00:06:00.042Z,2.10
2022-08-01T00:08:45.332Z,2.47
2022-08-01T00:11:30.809Z,1.70
2022-08-01T00:14:16.378Z,1.92
2022-08-01T00:17:07.109Z,1.88
2022-08-01T00:19:53.343Z,2.08
2022-08-01T00:22:39.427Z,2.28
2022-08-01T00:25:34.379Z,1.73
2022-08-01T00:28:20.190Z,2.30
2022-08-01T00:31:05.436Z,1.75
2022-08-01T00:33:50.765Z,1.77
2022-08-01T00:36:36.221Z,1.67
2022-08-01T00:39:21.615Z,1.83
2022-08-01T00:42:09.464Z,1.88
2022-08-01T00:44:55.329Z,1.98
2022-08-01T00:47:40.903Z,1.50
2022-08-01T00:50:26.717Z,1.60
2022-08-01T00:53:18.842Z,1.55
2022-08-01T00:56:05.440Z,1.55
2022-08-01T00:58:51.353Z,1.35
2022-08-01T01:01:39.948Z,1.90
2022-08-01T01:04:26.049Z,1.45
2022-08-01T01:07:20.479Z,1.48
2022-08-01T01:10:30.131Z,2.03
2022-08-01T01:13:31.422Z,2.05
2022-08-01T01:16:19.966Z,1.77
2022-08-01T01:19:10.071Z,1.83
2022-08-01T01:22:19.615Z,1.70
2022-08-01T01:25:11.031Z,1.40
2022-08-01T01:28:30.960Z,1.75
2022-08-01T01:31:21.232Z,1.98
2022-08-01T01:34:08.852Z,1.95
2022-08-01T01:36:56.432Z,2.05
2022-08-01T01:39:45.254Z,1.55
2022-08-01T01:42:33.126Z,1.48
2022-08-01T01:45:20.080Z,1.73
2022-08-01T01:48:08.934Z,1.90
2022-08-01T01:50:54.977Z,1.85
2022-08-01T01:53:42.946Z,1.55
2022-08-01T01:56:29.753Z,1.55
2022-08-01T01:59:19.562Z,1.65
2022-08-01T02:02:13.855Z,2.00
2022-08-01T02:05:00.595Z,1.73
2022-08-01T02:07:48.571Z,1.40
2022-08-01T02:10:36.319Z,1.65
2022-08-01T02:13:22.454Z,1.88
2022-08-01T02:16:12.308Z,1.88
2022-08-01T02:18:58.021Z,1.67
2022-08-01T02:21:47.282Z,1.90
2022-08-01T02:24:35.731Z,1.73
2022-08-01T02:27:45.083Z,1.90
2022-08-01T02:30:36.824Z,1.85
2022-08-01T02:33:27.146Z,1.90
2022-08-01T02:36:30.586Z,1.67
2022-08-01T02:39:23.010Z,1.70
2022-08-01T02:42:12.792Z,1.88
2022-08-01T02:44:58.633Z,1.85
2022-08-01T02:47:46.868Z,1.80
2022-08-01T02:50:34.742Z,1.40
2022-08-01T02:53:23.061Z,1.58
2022-08-01T02:56:35.992Z,1.30
2022-08-01T02:59:26.616Z,1.50
2022-08-01T03:02:13.943Z,1.48
2022-08-01T03:05:01.952Z,1.58
2022-08-01T03:07:48.925Z,1.63
2022-08-01T03:10:37.212Z,1.33
2022-08-01T03:13:24.920Z,1.80
2022-08-01T03:16:13.151Z,1.77
2022-08-01T03:19:02.324Z,1.88
2022-08-01T03:21:49.464Z,1.80
2022-08-01T03:24:37.683Z,1.70
2022-08-01T03:27:25.506Z,1.55
2022-08-01T03:30:12.521Z,1.42
2022-08-01T03:32:58.331Z,1.80
2022-08-01T03:35:49.745Z,1.98
2022-08-01T03:38:40.568Z,2.10
2022-08-01T03:41:29.525Z,2.28
2022-08-01T03:44:17.376Z,1.83
2022-08-01T03:47:06.734Z,2.38
2022-08-01T03:49:53.749Z,2.08
2022-08-01T03:52:42.930Z,2.25
2022-08-01T03:55:28.977Z,2.03
2022-08-01T03:58:15.505Z,2.10
2022-08-01T04:01:02.270Z,2.35
2022-08-01T04:03:48.290Z,2.03
2022-08-01T04:06:34.041Z,2.45
2022-08-01T04:09:19.583Z,2.15
2022-08-01T04:12:11.918Z,1.85
2022-08-01T04:14:57.938Z,1.85
2022-08-01T04:17:43.483Z,2.20
2022-08-01T04:20:29.190Z,2.03
2022-08-01T04:23:21.288Z,2.35
2022-08-01T04:26:07.795Z,2.50
2022-08-01T04:28:56.068Z,2.17
2022-08-01T04:31:45.550Z,2.22
2022-08-01T04:34:34.654Z,2.10
2022-08-01T04:37:21.074Z,2.50
2022-08-01T04:40:08.331Z,2.30
2022-08-01T04:42:54.253Z,1.83
2022-08-01T04:45:40.577Z,1.77
2022-08-01T04:48:27.287Z,1.48
2022-08-01T04:51:16.291Z,2.03
2022-08-01T04:54:02.393Z,2.00
2022-08-01T04:56:47.991Z,1.60
2022-08-01T04:59:40.575Z,2.25
2022-08-01T05:02:29.274Z,1.23
2022-08-01T05:05:14.757Z,1.38
2022-08-01T05:08:01.483Z,1.80
2022-08-01T05:10:46.848Z,2.00
2022-08-01T05:13:32.182Z,2.05
2022-08-01T05:16:18.070Z,1.95
2022-08-01T05:19:03.739Z,2.00
2022-08-01T05:21:49.053Z,2.08
2022-08-01T05:24:35.963Z,2.33
2022-08-01T05:27:22.464Z,1.92
2022-08-01T05:30:09.929Z,2.50
2022-08-01T05:32:55.230Z,2.05
2022-08-01T05:35:49.103Z,2.70
2022-08-01T05:38:35.259Z,2.20
2022-08-01T05:41:20.779Z,1.80
2022-08-01T05:44:07.315Z,2.13
2022-08-01T05:46:52.931Z,2.45
2022-08-01T05:49:38.505Z,2.13
2022-08-01T05:52:27.025Z,2.42
2022-08-01T05:55:12.570Z,2.20
2022-08-01T05:57:58.183Z,3.10
2022-08-01T06:00:44.001Z,3.15
2022-08-01T06:03:32.410Z,3.00
2022-08-01T06:06:18.077Z,3.38
2022-08-01T06:09:03.505Z,2.83
2022-08-01T06:11:49.189Z,2.67
2022-08-01T06:14:34.814Z,3.38
2022-08-01T06:17:20.226Z,3.53
2022-08-01T06:20:07.391Z,3.35
2022-08-01T06:22:53.050Z,3.53
2022-08-01T06:25:38.654Z,3.58
2022-08-01T06:28:24.432Z,3.05
2022-08-01T06:31:11.209Z,3.97
2022-08-01T06:33:58.287Z,4.43
2022-08-01T06:36:43.801Z,3.63
2022-08-01T06:39:29.258Z,4.22
2022-08-01T06:42:15.953Z,3.30
2022-08-01T06:45:05.431Z,3.45
2022-08-01T06:47:51.091Z,3.42
2022-08-01T06:50:39.353Z,3.40
2022-08-01T06:53:25.004Z,3.45
2022-08-01T06:56:10.331Z,3.20
2022-08-01T06:59:02.155Z,3.08
2022-08-01T07:01:47.831Z,2.85
2022-08-01T07:04:33.322Z,3.10
2022-08-01T07:07:19.024Z,2.58
2022-08-01T07:10:05.470Z,2.45
2022-08-01T07:12:50.676Z,2.75
2022-08-01T07:15:36.058Z,2.38
2022-08-01T07:18:21.430Z,2.70
2022-08-01T07:21:16.450Z,2.15
2022-08-01T07:24:19.474Z,1.90
2022-08-01T07:27:23.024Z,1.98
2022-08-01T07:30:10.226Z,1.83
2022-08-01T07:32:55.644Z,2.15
2022-08-01T07:35:41.812Z,1.85
2022-08-01T07:38:27.111Z,1.70
2022-08-01T07:41:12.583Z,1.75
2022-08-01T07:44:02.947Z,2.00
2022-08-01T07:46:50.418Z,1.98
2022-08-01T07:49:40.268Z,1.88
2022-08-01T07:52:26.033Z,1.63
2022-08-01T07:55:16.582Z,1.80
2022-08-01T07:58:02.933Z,2.00
2022-08-01T08:00:48.203Z,2.58
2022-08-01T08:03:33.940Z,1.85
2022-08-01T08:06:19.552Z,1.63
2022-08-01T08:09:04.893Z,1.40
2022-08-01T08:11:50.453Z,1.67
2022-08-01T08:14:36.072Z,1.30
2022-08-01T08:17:22.363Z,1.27
2022-08-01T08:20:09.460Z,1.30
2022-08-01T08:22:56.055Z,1.23
2022-08-01T08:25:41.577Z,1.13
2022-08-01T08:28:28.507Z,1.38
2022-08-01T08:31:24.566Z,1.13
2022-08-01T08:34:12.180Z,1.40
2022-08-01T08:36:59.210Z,1.48
2022-08-01T08:39:45.252Z,1.02
2022-08-01T08:42:30.668Z,1.13
2022-08-01T08:45:16.155Z,1.40
2022-08-01T08:48:01.935Z,1.23
2022-08-01T08:50:49.211Z,1.00
2022-08-01T08:53:35.946Z,1.30
2022-08-01T08:56:22.278Z,0.88
2022-08-01T08:59:07.805Z,0.90
2022-08-01T09:01:53.572Z,1.88
2022-08-01T09:04:41.262Z,1.00
2022-08-01T09:07:27.290Z,0.80
2022-08-01T09:10:12.903Z,0.80
2022-08-01T09:13:14.063Z,0.95
2022-08-01T09:16:02.244Z,1.38
2022-08-01T09:18:53.633Z,1.08
2022-08-01T09:21:40.862Z,1.10
2022-08-01T09:24:31.780Z,0.90
2022-08-01T09:27:25.127Z,1.08
2022-08-01T09:30:17.220Z,0.95
2022-08-01T09:33:17.730Z,1.00
2022-08-01T09:36:07.410Z,1.08
2022-08-01T09:39:15.901Z,0.67
2022-08-01T09:42:19.485Z,0.80
2022-08-01T09:45:07.417Z,1.05
2022-08-01T09:47:53.120Z,1.02
2022-08-01T09:50:45.366Z,0.90
2022-08-01T09:53:51.125Z,0.80
2022-08-01T09:56:39.275Z,0.77
2022-08-01T09:59:57.305Z,0.98
2022-08-01T10:02:44.222Z,0.75
2022-08-01T10:05:36.916Z,0.70
2022-08-01T10:08:24.450Z,1.02
2022-08-01T10:11:13.350Z,0.70
2022-08-01T10:14:03.583Z,0.90
2022-08-01T10:17:05.353Z,0.77
2022-08-01T10:19:55.703Z,1.13
2022-08-01T10:22:44.858Z,1.00
2022-08-01T10:25:42.585Z,1.23
2022-08-01T10:28:31.882Z,0.80
2022-08-01T10:31:19.068Z,1.02
2022-08-01T10:34:19.656Z,1.23
2022-08-01T10:37:09.718Z,1.58
2022-08-01T10:40:27.101Z,1.48
2022-08-01T10:43:02.754Z,1.92
2022-08-01T10:45:48.530Z,2.35
2022-08-01T10:48:43.497Z,1.63
2022-08-01T10:51:52.919Z,1.48
2022-08-01T10:54:51.988Z,1.65
2022-08-01T10:57:52.869Z,1.58
2022-08-01T11:00:38.853Z,1.75
2022-08-01T11:03:56.205Z,1.70
2022-08-01T11:06:47.832Z,1.20
2022-08-01T11:09:49.533Z,1.52
2022-08-01T11:12:41.799Z,1.48
2022-08-01T11:15:31.260Z,1.42
2022-08-01T11:18:27.515Z,1.30
2022-08-01T11:21:57.446Z,1.52
2022-08-01T11:24:50.697Z,1.42
2022-08-01T11:27:36.762Z,1.23
2022-08-01T11:30:23.598Z,1.65
2022-08-01T11:33:11.157Z,1.35
2022-08-01T11:36:12.760Z,1.33
2022-08-01T11:39:01.388Z,1.45
2022-08-01T11:41:48.686Z,1.30
2022-08-01T11:44:50.251Z,0.40
2022-08-01T11:47:54.208Z,0.60
2022-08-01T11:50:39.957Z,0.60
2022-08-01T11:53:26.865Z,0.50
2022-08-01T11:56:12.520Z,0.40
2022-08-01T11:59:01.355Z,0.55
2022-08-01T12:01:46.883Z,0.70
2022-08-01T12:04:57.296Z,0.35
2022-08-01T12:07:44.712Z,0.80
2022-08-01T12:10:49.608Z,0.65
2022-08-01T12:13:44.347Z,0.60
2022-08-01T12:16:33.071Z,0.73
2022-08-01T12:19:24.602Z,0.95
2022-08-01T12:22:15.000Z,0.63
2022-08-01T12:25:13.048Z,1.08
2022-08-01T12:28:04.398Z,0.90
2022-08-01T12:30:50.456Z,0.70
2022-08-01T12:33:36.148Z,0.77
2022-08-01T12:36:31.448Z,0.50
2022-08-01T12:39:17.216Z,0.50
2022-08-01T12:42:02.733Z,0.38
2022-08-01T12:44:52.248Z,0.70
2022-08-01T12:47:39.435Z,0.45
2022-08-01T12:50:29.325Z,0.43
2022-08-01T12:53:16.970Z,0.60
2022-08-01T12:56:02.607Z,0.73
2022-08-01T12:58:47.920Z,0.57
2022-08-01T13:01:33.717Z,0.30
2022-08-01T13:04:20.381Z,0.40
2022-08-01T13:07:06.484Z,0.70
2022-08-01T13:09:53.142Z,0.50
2022-08-01T13:12:40.043Z,0.30
2022-08-01T13:15:33.868Z,0.60
2022-08-01T13:18:34.150Z,0.43
2022-08-01T13:21:22.148Z,0.32
2022-08-01T13:24:11.940Z,0.30
2022-08-01T13:27:04.286Z,0.40
2022-08-01T13:29:54.009Z,0.35
2022-08-01T13:32:39.951Z,0.30
2022-08-01T13:35:25.972Z,0.20
2022-08-01T13:38:11.875Z,0.22
2022-08-01T13:41:00.868Z,0.20
2022-08-01T13:43:58.839Z,0.10
2022-08-01T13:46:49.491Z,0.20
2022-08-01T13:49:38.059Z,0.30
2022-08-01T13:52:23.899Z,0.30
2022-08-01T13:55:11.147Z,0.30
2022-08-01T13:57:56.802Z,0.10
2022-08-01T14:00:42.715Z,0.30
2022-08-01T14:03:33.624Z,0.30
2022-08-01T14:06:23.246Z,0.30
2022-08-01T14:09:17.778Z,0.80
2022-08-01T14:12:05.244Z,0.80
2022-08-01T14:14:53.499Z,0.90
2022-08-01T14:17:39.547Z,0.40
2022-08-01T14:20:33.996Z,0.93
2022-08-01T14:23:19.149Z,0.60
2022-08-01T14:26:11.449Z,0.20
2022-08-01T14:28:57.816Z,0.35
2022-08-01T14:31:43.690Z,0.20
2022-08-01T14:34:28.953Z,0.40
2022-08-01T14:37:14.272Z,0.35
2022-08-01T14:40:01.497Z,0.30
2022-08-01T14:42:47.469Z,0.30
2022-08-01T14:45:33.877Z,0.10
2022-08-01T14:48:19.245Z,0.10
2022-08-01T14:51:05.364Z,0.10
2022-08-01T14:53:53.009Z,0.10
2022-08-01T14:56:38.897Z,0.20
2022-08-01T14:59:24.584Z,0.10
2022-08-01T15:02:11.604Z,0.20
2022-08-01T15:04:57.035Z,0.28
2022-08-01T15:07:52.566Z,0.13
2022-08-01T15:10:39.465Z,0.35
2022-08-01T15:13:25.035Z,0.30
2022-08-01T15:16:11.882Z,0.20
2022-08-01T15:18:57.950Z,0.40
2022-08-01T15:21:43.507Z,0.30
2022-08-01T15:24:28.962Z,0.30
2022-08-01T15:27:14.608Z,0.22
2022-08-01T15:30:00.482Z,0.20
2022-08-01T15:32:46.091Z,0.00
2022-08-01T15:35:35.668Z,0.10
2022-08-01T15:38:22.565Z,0.10
2022-08-01T15:41:08.091Z,0.20
2022-08-01T15:43:56.025Z,0.03
2022-08-01T15:46:41.851Z,0.10
2022-08-01T15:49:28.307Z,0.10
2022-08-01T15:52:21.914Z,0.20
2022-08-01T15:55:08.884Z,0.20
2022-08-01T15:57:54.296Z,0.10
2022-08-01T16:00:40.367Z,0.20
2022-08-01T16:03:28.096Z,0.00
2022-08-01T16:06:13.920Z,0.20
2022-08-01T16:08:59.604Z,0.08
2022-08-01T16:11:50.711Z,0.30
2022-08-01T16:17:22.235Z,0.50
2022-08-01T16:20:08.607Z,0.60
2022-08-01T16:22:54.079Z,0.30
2022-08-01T16:25:39.683Z,0.15
2022-08-01T16:28:25.486Z,0.52
2022-08-01T16:31:17.152Z,0.20
2022-08-01T16:34:16.537Z,0.50
2022-08-01T16:37:02.361Z,0.30
2022-08-01T16:39:47.852Z,0.40
2022-08-01T16:42:33.245Z,0.30
2022-08-01T16:45:21.326Z,0.63
2022-08-01T16:48:06.898Z,0.45
2022-08-01T16:50:57.657Z,0.25
2022-08-01T16:53:43.097Z,0.52
2022-08-01T16:56:28.370Z,0.30
2022-08-01T16:59:13.752Z,0.55
2022-08-01T17:02:02.459Z,0.40
2022-08-01T17:04:48.308Z,0.45
2022-08-01T17:07:34.291Z,0.22
2022-08-01T17:10:20.568Z,0.47
2022-08-01T17:13:06.472Z,0.55
2022-08-01T17:15:51.985Z,0.82
2022-08-01T17:18:37.869Z,1.00
2022-08-01T17:21:23.443Z,0.63
2022-08-01T17:24:10.007Z,0.82
2022-08-01T17:26:57.274Z,0.80
2022-08-01T17:29:44.612Z,0.45
2022-08-01T17:32:30.260Z,0.80
2022-08-01T17:35:16.719Z,0.60
2022-08-01T17:38:02.121Z,0.65
2022-08-01T17:40:47.739Z,0.70
2022-08-01T17:43:33.394Z,0.68
2022-08-01T17:46:19.019Z,1.15
2022-08-01T17:49:06.089Z,0.73
2022-08-01T17:51:51.897Z,0.80
2022-08-01T17:54:37.609Z,0.68
2022-08-01T17:57:23.051Z,0.68
2022-08-01T18:00:09.048Z,0.80
2022-08-01T18:02:54.575Z,1.13
2022-08-01T18:05:41.091Z,0.60
2022-08-01T18:08:30.179Z,0.90
2022-08-01T18:11:17.285Z,0.80
2022-08-01T18:14:02.695Z,1.38
2022-08-01T18:16:48.111Z,1.92
2022-08-01T18:19:33.930Z,0.95
2022-08-01T18:22:33.384Z,1.27
2022-08-01T18:25:20.252Z,0.90
2022-08-01T18:28:29.389Z,0.80
2022-08-01T18:31:13.263Z,0.82
2022-08-01T18:33:58.782Z,1.35
2022-08-01T18:36:44.290Z,1.15
2022-08-01T18:39:31.882Z,1.33
2022-08-01T18:42:18.375Z,1.10
2022-08-01T18:45:04.409Z,0.93
2022-08-01T18:47:50.042Z,0.90
2022-08-01T18:50:35.455Z,0.90
2022-08-01T18:53:22.608Z,0.98
2022-08-01T18:56:11.989Z,0.77
2022-08-01T18:58:57.892Z,1.20
2022-08-01T19:01:44.183Z,1.05
2022-08-01T19:04:29.833Z,1.20
2022-08-01T19:07:24.303Z,0.65
2022-08-01T19:10:19.093Z,0.50
2022-08-01T19:13:04.643Z,0.93
2022-08-01T19:15:51.507Z,0.60
2022-08-01T19:18:38.312Z,0.85
2022-08-01T19:21:23.708Z,0.50
2022-08-01T19:24:23.655Z,0.90
2022-08-01T19:27:12.613Z,0.63
2022-08-01T19:30:01.408Z,0.65
2022-08-01T19:32:48.983Z,0.65
2022-08-01T19:35:35.322Z,0.57
2022-08-01T19:38:21.407Z,0.73
2022-08-01T19:41:07.421Z,0.50
2022-08-01T19:43:59.008Z,0.50
2022-08-01T19:46:45.059Z,1.02
2022-08-01T19:49:30.466Z,0.60
2022-08-01T19:52:20.110Z,0.70
2022-08-01T19:55:07.558Z,0.77
2022-08-01T19:58:25.781Z,0.77
2022-08-01T20:01:02.945Z,0.70
2022-08-01T20:03:50.239Z,0.90
2022-08-01T20:06:36.001Z,0.80
2022-08-01T20:09:21.778Z,0.65
2022-08-01T20:12:08.528Z,0.85
2022-08-01T20:14:53.974Z,0.80
2022-08-01T20:17:39.941Z,0.77
2022-08-01T20:20:27.264Z,0.55
2022-08-01T20:23:18.164Z,1.00
2022-08-01T20:26:04.836Z,0.23
2022-08-01T20:28:50.249Z,0.63
2022-08-01T20:31:44.077Z,0.70
2022-08-01T20:34:31.924Z,0.70
2022-08-01T20:38:03.373Z,0.85
2022-08-01T20:40:26.729Z,0.70
2022-08-01T20:43:13.918Z,0.47
2022-08-01T20:46:00.160Z,0.50
2022-08-01T20:48:47.021Z,0.43
2022-08-01T20:51:32.357Z,0.50
2022-08-01T20:54:18.221Z,0.57
2022-08-01T20:57:16.654Z,1.15
2022-08-01T21:00:05.802Z,0.50
2022-08-01T21:03:01.547Z,0.30
2022-08-01T21:06:01.005Z,0.63
2022-08-01T21:08:49.994Z,0.50
2022-08-01T21:12:05.333Z,0.43
2022-08-01T21:14:55.653Z,0.57
2022-08-01T21:17:45.613Z,0.60
2022-08-01T21:20:33.530Z,0.63
2022-08-01T21:24:09.298Z,0.50
2022-08-01T21:26:56.515Z,0.70
2022-08-01T21:29:42.973Z,0.68
2022-08-01T21:32:30.479Z,0.90
2022-08-01T21:35:18.700Z,0.60
2022-08-01T21:38:05.963Z,0.77
2022-08-01T21:40:53.221Z,0.85
2022-08-01T21:43:39.060Z,0.65
2022-08-01T21:46:28.035Z,0.93
2022-08-01T21:49:13.355Z,0.98
2022-08-01T21:52:10.742Z,0.90
2022-08-01T21:55:04.339Z,1.02
2022-08-01T21:58:19.465Z,0.88
2022-08-01T22:01:13.679Z,0.88
2022-08-01T22:04:02.744Z,0.70
2022-08-01T22:06:49.902Z,1.13
2022-08-01T22:09:38.451Z,1.13
2022-08-01T22:12:24.466Z,0.93
2022-08-01T22:15:12.377Z,0.80
2022-08-01T22:17:58.750Z,1.10
2022-08-01T22:20:47.186Z,1.08
2022-08-01T22:23:36.913Z,0.68
2022-08-01T22:26:28.617Z,0.73
2022-08-01T22:29:16.024Z,0.70
2022-08-01T22:32:02.855Z,1.13
2022-08-01T22:34:48.646Z,0.60
2022-08-01T22:37:57.130Z,0.60
2022-08-01T22:40:48.305Z,0.65
2022-08-01T22:43:42.939Z,0.80
2022-08-01T22:46:50.098Z,0.80
2022-08-01T22:49:42.267Z,0.80
2022-08-01T22:52:30.081Z,0.90
2022-08-01T22:55:21.511Z,0.77
2022-08-01T22:58:11.348Z,1.00
2022-08-01T23:01:04.047Z,0.82
2022-08-01T23:03:51.064Z,0.50
2022-08-01T23:06:42.644Z,0.80
2022-08-01T23:09:52.563Z,0.70
2022-08-01T23:12:36.694Z,1.42
2022-08-01T23:15:23.978Z,0.55
2022-08-01T23:18:10.034Z,0.55
2022-08-01T23:21:01.378Z,0.68
2022-08-01T23:23:47.496Z,0.97
2022-08-01T23:26:33.976Z,0.82
2022-08-01T23:29:20.730Z,0.47
2022-08-01T23:32:06.232Z,0.50
2022-08-01T23:34:51.855Z,0.35
2022-08-01T23:37:38.051Z,0.50
2022-08-01T23:40:24.829Z,0.50
2022-08-01T23:43:17.202Z,0.47
2022-08-01T23:46:05.484Z,0.40
2022-08-01T23:48:51.130Z,0.60
2022-08-01T23:51:37.374Z,0.57
2022-08-01T23:54:23.053Z,0.40
2022-08-01T23:57:09.871Z,0.80
2022-08-01T23:59:59.226Z,0.65
